sensor_id;sensor_type;location;lat;lon;timestamp;P1;durP1;ratioP1;P2;durP2;ratioP2
40757;SDS011;26462;47.384;19.218;2022-09-16T00:02:26;7.88;;;4.05;;
40757;SDS011;26462;47.384;19.218;2022-09-16T00:04:54;8.27;;;3.70;;
40757;SDS011;26462;47.384;19.218;2022-09-16T00:07:22;5.53;;;3.38;;
40757;SDS011;26462;47.384;19.218;2022-09-16T00:09:49;6.35;;;3.40;;
40757;SDS011;26462;47.384;19.218;2022-09-16T00:12:17;6.68;;;3.45;;
40757;SDS011;26462;47.384;19.218;2022-09-16T00:14:44;4.50;;;2.67;;
40757;SDS011;26462;47.384;19.218;2022-09-16T00:17:13;6.40;;;3.30;;
40757;SDS011;26462;47.384;19.218;2022-09-16T00:19:42;8.35;;;3.50;;
40757;SDS011;26462;47.384;19.218;2022-09-16T00:22:11;6.10;;;3.45;;
40757;SDS011;26462;47.384;19.218;2022-09-16T00:24:39;6.15;;;3.33;;
40757;SDS011;26462;47.384;19.218;2022-09-16T00:27:07;5.15;;;3.33;;
40757;SDS011;26462;47.384;19.218;2022-09-16T00:29:35;5.57;;;2.65;;
40757;SDS011;26462;47.384;19.218;2022-09-16T00:32:03;5.97;;;2.67;;
40757;SDS011;26462;47.384;19.218;2022-09-16T00:34:31;4.03;;;2.72;;
40757;SDS011;26462;47.384;19.218;2022-09-16T00:36:58;7.88;;;3.33;;
40757;SDS011;26462;47.384;19.218;2022-09-16T00:39:29;3.88;;;2.47;;
40757;SDS011;26462;47.384;19.218;2022-09-16T00:41:56;5.30;;;3.03;;
40757;SDS011;26462;47.384;19.218;2022-09-16T00:47:48;8.90;;;3.35;;
40757;SDS011;26462;47.384;19.218;2022-09-16T00:53:42;6.22;;;2.50;;
40757;SDS011;26462;47.384;19.218;2022-09-16T00:56:18;4.70;;;2.33;;
40757;SDS011;26462;47.384;19.218;2022-09-16T00:59:40;3.28;;;1.88;;
40757;SDS011;26462;47.384;19.218;2022-09-16T01:02:14;4.18;;;2.10;;
40757;SDS011;26462;47.384;19.218;2022-09-16T01:04:46;4.05;;;2.35;;
40757;SDS011;26462;47.384;19.218;2022-09-16T01:07:14;4.22;;;1.90;;
40757;SDS011;26462;47.384;19.218;2022-09-16T01:09:42;3.00;;;1.83;;
40757;SDS011;26462;47.384;19.218;2022-09-16T01:12:10;3.90;;;1.95;;
40757;SDS011;26462;47.384;19.218;2022-09-16T01:14:37;4.28;;;2.00;;
40757;SDS011;26462;47.384;19.218;2022-09-16T01:17:59;5.78;;;2.72;;
40757;SDS011;26462;47.384;19.218;2022-09-16T01:20:40;6.03;;;2.33;;
40757;SDS011;26462;47.384;19.218;2022-09-16T01:55:05;4.03;;;2.25;;
40757;SDS011;26462;47.384;19.218;2022-09-16T07:39:14;10.65;;;5.32;;
40757;SDS011;26462;47.384;19.218;2022-09-16T08:04:16;12.50;;;6.82;;
40757;SDS011;26462;47.384;19.218;2022-09-16T08:06:44;11.60;;;6.20;;
40757;SDS011;26462;47.384;19.218;2022-09-16T08:09:14;13.10;;;6.35;;
40757;SDS011;26462;47.384;19.218;2022-09-16T08:12:12;11.13;;;7.05;;
40757;SDS011;26462;47.384;19.218;2022-09-16T08:14:52;17.88;;;7.30;;
40757;SDS011;26462;47.384;19.218;2022-09-16T08:17:20;13.20;;;6.30;;
40757;SDS011;26462;47.384;19.218;2022-09-16T08:19:47;12.93;;;6.75;;
40757;SDS011;26462;47.384;19.218;2022-09-16T08:22:15;11.25;;;5.93;;
40757;SDS011;26462;47.384;19.218;2022-09-16T08:24:42;10.00;;;5.57;;
40757;SDS011;26462;47.384;19.218;2022-09-16T08:27:09;11.90;;;6.00;;
40757;SDS011;26462;47.384;19.218;2022-09-16T08:29:37;10.32;;;5.55;;
40757;SDS011;26462;47.384;19.218;2022-09-16T08:32:04;11.43;;;5.57;;
40757;SDS011;26462;47.384;19.218;2022-09-16T08:34:31;10.40;;;5.10;;
40757;SDS011;26462;47.384;19.218;2022-09-16T08:36:59;12.07;;;5.60;;
40757;SDS011;26462;47.384;19.218;2022-09-16T08:39:26;11.40;;;5.80;;
40757;SDS011;26462;47.384;19.218;2022-09-16T08:45:19;10.05;;;4.75;;
40757;SDS011;26462;47.384;19.218;2022-09-16T08:52:02;8.02;;;3.92;;
40757;SDS011;26462;47.384;19.218;2022-09-16T08:54:36;8.48;;;4.07;;
40757;SDS011;26462;47.384;19.218;2022-09-16T08:57:12;8.77;;;4.25;;
40757;SDS011;26462;47.384;19.218;2022-09-16T08:59:50;9.45;;;4.60;;
40757;SDS011;26462;47.384;19.218;2022-09-16T09:06:01;6.25;;;3.47;;
40757;SDS011;26462;47.384;19.218;2022-09-16T09:12:11;6.78;;;3.47;;
40757;SDS011;26462;47.384;19.218;2022-09-16T09:15:47;4.80;;;3.38;;
40757;SDS011;26462;47.384;19.218;2022-09-16T09:28:21;4.75;;;3.05;;
40757;SDS011;26462;47.384;19.218;2022-09-16T09:38:02;5.25;;;2.60;;
40757;SDS011;26462;47.384;19.218;2022-09-16T09:40:45;4.32;;;2.90;;
40757;SDS011;26462;47.384;19.218;2022-09-16T09:43:46;6.78;;;3.05;;
40757;SDS011;26462;47.384;19.218;2022-09-16T09:52:07;4.88;;;2.38;;
40757;SDS011;26462;47.384;19.218;2022-09-16T09:56:27;3.90;;;2.40;;
40757;SDS011;26462;47.384;19.218;2022-09-16T10:01:20;6.05;;;3.05;;
40757;SDS011;26462;47.384;19.218;2022-09-16T10:03:47;6.18;;;2.67;;
40757;SDS011;26462;47.384;19.218;2022-09-16T10:06:17;5.57;;;2.80;;
40757;SDS011;26462;47.384;19.218;2022-09-16T10:08:53;5.40;;;2.67;;
40757;SDS011;26462;47.384;19.218;2022-09-16T10:11:25;5.88;;;3.05;;
40757;SDS011;26462;47.384;19.218;2022-09-16T10:13:55;5.33;;;2.77;;
40757;SDS011;26462;47.384;19.218;2022-09-16T10:16:28;7.35;;;2.75;;
40757;SDS011;26462;47.384;19.218;2022-09-16T10:19:04;8.48;;;3.92;;
40757;SDS011;26462;47.384;19.218;2022-09-16T10:21:51;4.82;;;2.80;;
40757;SDS011;26462;47.384;19.218;2022-09-16T10:24:40;5.35;;;2.95;;
40757;SDS011;26462;47.384;19.218;2022-09-16T10:27:52;5.30;;;2.97;;
40757;SDS011;26462;47.384;19.218;2022-09-16T10:30:20;6.85;;;2.35;;
40757;SDS011;26462;47.384;19.218;2022-09-16T10:32:50;4.63;;;2.55;;
40757;SDS011;26462;47.384;19.218;2022-09-16T10:35:53;5.03;;;2.08;;
40757;SDS011;26462;47.384;19.218;2022-09-16T10:38:47;4.88;;;2.20;;
40757;SDS011;26462;47.384;19.218;2022-09-16T10:43:58;4.63;;;1.90;;
40757;SDS011;26462;47.384;19.218;2022-09-16T10:46:28;4.75;;;1.92;;
40757;SDS011;26462;47.384;19.218;2022-09-16T10:48:59;4.80;;;1.77;;
40757;SDS011;26462;47.384;19.218;2022-09-16T10:51:34;2.60;;;1.60;;
40757;SDS011;26462;47.384;19.218;2022-09-16T10:54:03;3.63;;;1.85;;
40757;SDS011;26462;47.384;19.218;2022-09-16T10:59:12;2.72;;;1.52;;
40757;SDS011;26462;47.384;19.218;2022-09-16T11:46:09;7.45;;;3.25;;
40757;SDS011;26462;47.384;19.218;2022-09-16T11:57:19;7.00;;;2.10;;
40757;SDS011;26462;47.384;19.218;2022-09-16T12:02:30;4.78;;;1.98;;
40757;SDS011;26462;47.384;19.218;2022-09-16T12:05:34;4.65;;;2.50;;
40757;SDS011;26462;47.384;19.218;2022-09-16T12:10:52;6.13;;;2.15;;
40757;SDS011;26462;47.384;19.218;2022-09-16T12:13:38;5.22;;;2.00;;
40757;SDS011;26462;47.384;19.218;2022-09-16T12:16:12;5.15;;;2.15;;
40757;SDS011;26462;47.384;19.218;2022-09-16T12:18:47;7.88;;;2.53;;
40757;SDS011;26462;47.384;19.218;2022-09-16T12:23:55;6.05;;;2.42;;
40757;SDS011;26462;47.384;19.218;2022-09-16T12:26:52;4.97;;;2.72;;
40757;SDS011;26462;47.384;19.218;2022-09-16T12:29:27;5.38;;;2.45;;
40757;SDS011;26462;47.384;19.218;2022-09-16T12:32:14;6.20;;;2.40;;
40757;SDS011;26462;47.384;19.218;2022-09-16T12:34:49;3.72;;;1.65;;
40757;SDS011;26462;47.384;19.218;2022-09-16T12:40:15;4.70;;;1.45;;
40757;SDS011;26462;47.384;19.218;2022-09-16T12:43:17;4.13;;;1.42;;
40757;SDS011;26462;47.384;19.218;2022-09-16T12:54:22;5.30;;;1.60;;
40757;SDS011;26462;47.384;19.218;2022-09-16T13:02:14;5.40;;;2.08;;
40757;SDS011;26462;47.384;19.218;2022-09-16T13:04:48;2.85;;;1.50;;
40757;SDS011;26462;47.384;19.218;2022-09-16T13:07:20;2.88;;;1.48;;
40757;SDS011;26462;47.384;19.218;2022-09-16T13:09:59;3.85;;;1.38;;
40757;SDS011;26462;47.384;19.218;2022-09-16T13:12:34;4.03;;;1.30;;
40757;SDS011;26462;47.384;19.218;2022-09-16T13:15:21;5.10;;;2.08;;
40757;SDS011;26462;47.384;19.218;2022-09-16T13:18:19;3.75;;;1.50;;
40757;SDS011;26462;47.384;19.218;2022-09-16T13:24:03;3.80;;;1.52;;
40757;SDS011;26462;47.384;19.218;2022-09-16T13:26:39;2.25;;;1.30;;
40757;SDS011;26462;47.384;19.218;2022-09-16T13:32:22;5.05;;;1.92;;
40757;SDS011;26462;47.384;19.218;2022-09-16T13:35:19;4.15;;;1.77;;
40757;SDS011;26462;47.384;19.218;2022-09-16T13:37:50;2.50;;;1.33;;
40757;SDS011;26462;47.384;19.218;2022-09-16T13:45:38;4.40;;;1.35;;
40757;SDS011;26462;47.384;19.218;2022-09-16T13:48:20;4.60;;;1.65;;
40757;SDS011;26462;47.384;19.218;2022-09-16T13:50:52;3.47;;;1.50;;
40757;SDS011;26462;47.384;19.218;2022-09-16T13:53:25;5.78;;;1.52;;
40757;SDS011;26462;47.384;19.218;2022-09-16T13:58:44;3.75;;;1.33;;
40757;SDS011;26462;47.384;19.218;2022-09-16T14:12:40;4.75;;;1.02;;
40757;SDS011;26462;47.384;19.218;2022-09-16T14:15:09;3.88;;;0.90;;
40757;SDS011;26462;47.384;19.218;2022-09-16T14:17:41;5.78;;;1.48;;
40757;SDS011;26462;47.384;19.218;2022-09-16T14:20:18;3.30;;;1.25;;
40757;SDS011;26462;47.384;19.218;2022-09-16T14:22:47;4.53;;;1.33;;
40757;SDS011;26462;47.384;19.218;2022-09-16T14:25:45;2.78;;;1.10;;
40757;SDS011;26462;47.384;19.218;2022-09-16T14:28:17;4.70;;;1.20;;
40757;SDS011;26462;47.384;19.218;2022-09-16T14:33:24;4.35;;;1.40;;
40757;SDS011;26462;47.384;19.218;2022-09-16T14:38:56;2.63;;;1.00;;
40757;SDS011;26462;47.384;19.218;2022-09-16T14:41:37;1.65;;;0.82;;
40757;SDS011;26462;47.384;19.218;2022-09-16T14:46:49;2.10;;;0.98;;
40757;SDS011;26462;47.384;19.218;2022-09-16T14:49:34;3.40;;;0.63;;
40757;SDS011;26462;47.384;19.218;2022-09-16T14:52:03;1.58;;;0.63;;
40757;SDS011;26462;47.384;19.218;2022-09-16T14:54:31;4.85;;;1.02;;
40757;SDS011;26462;47.384;19.218;2022-09-16T14:56:59;3.25;;;1.27;;
40757;SDS011;26462;47.384;19.218;2022-09-16T14:59:33;2.28;;;0.70;;
40757;SDS011;26462;47.384;19.218;2022-09-16T15:02:07;7.43;;;0.90;;
40757;SDS011;26462;47.384;19.218;2022-09-16T15:04:39;4.57;;;0.73;;
40757;SDS011;26462;47.384;19.218;2022-09-16T15:07:12;2.83;;;0.60;;
40757;SDS011;26462;47.384;19.218;2022-09-16T15:10:07;2.58;;;0.60;;
40757;SDS011;26462;47.384;19.218;2022-09-16T15:12:52;1.80;;;0.40;;
40757;SDS011;26462;47.384;19.218;2022-09-16T15:15:27;2.55;;;0.40;;
40757;SDS011;26462;47.384;19.218;2022-09-16T15:23:30;1.23;;;0.47;;
40757;SDS011;26462;47.384;19.218;2022-09-16T15:26:15;1.65;;;0.60;;
40757;SDS011;26462;47.384;19.218;2022-09-16T15:28:53;4.53;;;0.40;;
40757;SDS011;26462;47.384;19.218;2022-09-16T15:33:56;0.60;;;0.30;;
40757;SDS011;26462;47.384;19.218;2022-09-16T15:36:32;2.63;;;0.40;;
40757;SDS011;26462;47.384;19.218;2022-09-16T15:39:02;1.55;;;0.30;;
40757;SDS011;26462;47.384;19.218;2022-09-16T15:41:29;4.50;;;0.52;;
40757;SDS011;26462;47.384;19.218;2022-09-16T15:43:57;1.48;;;0.30;;
40757;SDS011;26462;47.384;19.218;2022-09-16T15:46:26;2.42;;;0.50;;
40757;SDS011;26462;47.384;19.218;2022-09-16T15:48:56;1.38;;;0.40;;
40757;SDS011;26462;47.384;19.218;2022-09-16T15:51:32;3.83;;;0.50;;
40757;SDS011;26462;47.384;19.218;2022-09-16T16:02:32;2.03;;;0.32;;
40757;SDS011;26462;47.384;19.218;2022-09-16T16:05:24;3.33;;;0.57;;
40757;SDS011;26462;47.384;19.218;2022-09-16T16:07:56;2.78;;;0.80;;
40757;SDS011;26462;47.384;19.218;2022-09-16T16:10:26;5.75;;;1.15;;
40757;SDS011;26462;47.384;19.218;2022-09-16T16:12:57;2.88;;;0.70;;
40757;SDS011;26462;47.384;19.218;2022-09-16T16:15:26;3.35;;;0.50;;
40757;SDS011;26462;47.384;19.218;2022-09-16T16:17:57;3.00;;;0.40;;
40757;SDS011;26462;47.384;19.218;2022-09-16T16:20:30;0.88;;;0.50;;
40757;SDS011;26462;47.384;19.218;2022-09-16T16:23:00;2.70;;;0.43;;
40757;SDS011;26462;47.384;19.218;2022-09-16T16:25:27;2.33;;;0.30;;
40757;SDS011;26462;47.384;19.218;2022-09-16T16:27:55;1.60;;;0.30;;
40757;SDS011;26462;47.384;19.218;2022-09-16T16:30:22;2.50;;;0.35;;
40757;SDS011;26462;47.384;19.218;2022-09-16T16:32:49;1.50;;;0.38;;
40757;SDS011;26462;47.384;19.218;2022-09-16T16:35:17;2.00;;;0.40;;
40757;SDS011;26462;47.384;19.218;2022-09-16T16:37:44;1.05;;;0.43;;
40757;SDS011;26462;47.384;19.218;2022-09-16T16:40:13;2.05;;;0.50;;
40757;SDS011;26462;47.384;19.218;2022-09-16T16:42:41;4.38;;;0.82;;
40757;SDS011;26462;47.384;19.218;2022-09-16T16:45:12;5.07;;;0.68;;
40757;SDS011;26462;47.384;19.218;2022-09-16T16:48:17;2.38;;;0.30;;
40757;SDS011;26462;47.384;19.218;2022-09-16T16:54:16;1.55;;;0.40;;
40757;SDS011;26462;47.384;19.218;2022-09-16T16:56:45;3.70;;;0.40;;
40757;SDS011;26462;47.384;19.218;2022-09-16T16:59:12;2.72;;;0.60;;
40757;SDS011;26462;47.384;19.218;2022-09-16T17:02:21;2.75;;;0.60;;
40757;SDS011;26462;47.384;19.218;2022-09-16T17:05:34;1.83;;;0.30;;
